createdAt,value
2018-08-23T00:01:27.334Z,100731.00
2018-08-23T00:03:59.481Z,100730.00
2018-08-23T00:06:29.401Z,100731.00
2018-08-23T00:08:59.457Z,100732.00
2018-08-23T00:11:32.057Z,100733.00
2018-08-23T00:14:01.917Z,100731.00
2018-08-23T00:16:47.592Z,100728.00
2018-08-23T00:19:17.643Z,100724.00
2018-08-23T00:21:48.606Z,100720.00
2018-08-23T00:24:19.620Z,100716.00
2018-08-23T00:26:52.625Z,100715.00
2018-08-23T00:29:27.555Z,100706.00
2018-08-23T00:32:00.052Z,100712.00
2018-08-23T00:34:31.962Z,100705.00
2018-08-23T00:37:02.496Z,100703.00
2018-08-23T00:39:32.460Z,100707.00
2018-08-23T00:42:06.258Z,100704.00
2018-08-23T00:45:07.417Z,100704.00
2018-08-23T00:47:37.315Z,100700.00
2018-08-23T00:50:07.140Z,100701.00
2018-08-23T00:52:46.660Z,100702.00
2018-08-23T00:55:21.277Z,100700.00
2018-08-23T00:57:53.525Z,100697.00
2018-08-23T01:00:25.177Z,100696.00
2018-08-23T01:03:02.545Z,100700.00
2018-08-23T01:05:38.500Z,100691.00
2018-08-23T01:08:09.922Z,100685.00
2018-08-23T01:10:41.332Z,100685.00
2018-08-23T01:13:11.886Z,100679.00
2018-08-23T01:15:44.948Z,100683.00
2018-08-23T01:18:18.889Z,100681.00
2018-08-23T01:20:50.311Z,100684.00
2018-08-23T01:23:20.070Z,100684.00
2018-08-23T01:25:57.690Z,100679.00
2018-08-23T01:28:34.177Z,100682.00
2018-08-23T01:31:24.990Z,100689.00
2018-08-23T01:33:57.950Z,100683.00
2018-08-23T01:36:32.842Z,100681.00
2018-08-23T01:39:08.286Z,100671.00
2018-08-23T01:41:37.937Z,100672.00
2018-08-23T01:44:08.027Z,100665.00
2018-08-23T01:46:42.951Z,100664.00
2018-08-23T01:49:12.698Z,100666.00
2018-08-23T01:51:42.848Z,100667.00
2018-08-23T01:54:12.815Z,100661.00
2018-08-23T01:56:42.523Z,100660.00
2018-08-23T01:59:12.437Z,100659.00
2018-08-23T02:01:42.272Z,100658.00
2018-08-23T02:04:12.002Z,100657.00
2018-08-23T02:06:41.798Z,100658.00
2018-08-23T02:09:11.975Z,100657.00
2018-08-23T02:11:41.962Z,100656.00
2018-08-23T02:14:11.774Z,100650.00
2018-08-23T02:16:53.206Z,100647.00
2018-08-23T02:19:23.262Z,100648.00
2018-08-23T02:21:53.443Z,100645.00
2018-08-23T02:24:30.077Z,100642.00
2018-08-23T02:26:59.901Z,100645.00
2018-08-23T02:29:46.342Z,100647.00
2018-08-23T02:32:16.218Z,100648.00
2018-08-23T02:34:47.113Z,100643.00
2018-08-23T02:37:17.746Z,100641.00
2018-08-23T02:39:47.957Z,100641.00
2018-08-23T02:42:19.161Z,100633.00
2018-08-23T02:44:49.343Z,100633.00
2018-08-23T02:47:19.172Z,100628.00
2018-08-23T02:49:49.023Z,100628.00
2018-08-23T02:52:18.942Z,100625.00
2018-08-23T02:54:49.155Z,100625.00
2018-08-23T02:57:19.081Z,100627.00
2018-08-23T02:59:48.905Z,100627.00
2018-08-23T03:02:18.897Z,100622.00
2018-08-23T03:04:48.716Z,100621.00
2018-08-23T03:07:22.217Z,100615.00
2018-08-23T03:09:52.023Z,100611.00
2018-08-23T03:12:21.744Z,100606.00
2018-08-23T03:14:51.422Z,100601.00
2018-08-23T03:17:24.973Z,100596.00
2018-08-23T03:20:14.591Z,100596.00
2018-08-23T03:22:45.763Z,100595.00
2018-08-23T03:25:16.973Z,100593.00
2018-08-23T03:27:46.866Z,100587.00
2018-08-23T03:30:18.714Z,100587.00
2018-08-23T03:32:48.386Z,100591.00
2018-08-23T03:35:18.107Z,100599.00
2018-08-23T03:37:48.870Z,100599.00
2018-08-23T03:40:19.090Z,100598.00
2018-08-23T03:42:48.785Z,100596.00
2018-08-23T03:45:23.631Z,100600.00
2018-08-23T03:47:54.464Z,100594.00
2018-08-23T03:50:24.267Z,100593.00
2018-08-23T03:52:55.750Z,100597.00
2018-08-23T03:55:26.874Z,100592.00
2018-08-23T03:58:01.703Z,100593.00
2018-08-23T04:00:36.769Z,100588.00
2018-08-23T04:03:13.448Z,100590.00
2018-08-23T04:05:43.394Z,100583.00
2018-08-23T04:08:13.911Z,100589.00
2018-08-23T04:10:43.980Z,100588.00
2018-08-23T04:13:13.932Z,100583.00
2018-08-23T04:15:44.078Z,100586.00
2018-08-23T04:18:16.273Z,100583.00
2018-08-23T04:20:55.353Z,100580.00
2018-08-23T04:23:25.137Z,100577.00
2018-08-23T04:25:55.261Z,100578.00
2018-08-23T04:28:25.141Z,100582.00
2018-08-23T04:30:55.197Z,100583.00
2018-08-23T04:33:25.009Z,100577.00
2018-08-23T04:35:55.059Z,100579.00
2018-08-23T04:38:25.053Z,100578.00
2018-08-23T04:40:58.968Z,100573.00
2018-08-23T04:43:28.966Z,100572.00
2018-08-23T04:45:58.793Z,100579.00
2018-08-23T04:48:28.576Z,100571.00
2018-08-23T04:50:58.553Z,100565.00
2018-08-23T04:53:28.512Z,100564.00
2018-08-23T04:55:58.397Z,100562.00
2018-08-23T04:58:28.138Z,100563.00
2018-08-23T05:00:58.017Z,100562.00
2018-08-23T05:03:28.036Z,100562.00
2018-08-23T05:05:58.067Z,100563.00
2018-08-23T05:08:27.789Z,100562.00
2018-08-23T05:10:57.457Z,100562.00
2018-08-23T05:13:27.503Z,100559.00
2018-08-23T05:15:57.427Z,100562.00
2018-08-23T05:18:27.275Z,100562.00
2018-08-23T05:20:57.328Z,100560.00
2018-08-23T05:23:27.088Z,100560.00
2018-08-23T05:25:59.240Z,100560.00
2018-08-23T05:28:29.067Z,100558.00
2018-08-23T05:30:59.044Z,100558.00
2018-08-23T05:33:28.968Z,100554.00
2018-08-23T05:35:59.274Z,100550.00
2018-08-23T05:38:29.397Z,100551.00
2018-08-23T05:41:04.414Z,100550.00
2018-08-23T05:43:34.188Z,100552.00
2018-08-23T05:46:04.313Z,100549.00
2018-08-23T05:48:34.313Z,100544.00
2018-08-23T05:51:13.968Z,100544.00
2018-08-23T05:53:49.374Z,100553.00
2018-08-23T05:56:20.578Z,100548.00
2018-08-23T05:58:50.499Z,100548.00
2018-08-23T06:01:20.283Z,100546.00
2018-08-23T06:03:50.380Z,100548.00
2018-08-23T06:06:20.276Z,100549.00
2018-08-23T06:08:54.457Z,100544.00
2018-08-23T06:11:24.309Z,100549.00
2018-08-23T06:13:54.166Z,100550.00
2018-08-23T06:16:24.258Z,100546.00
2018-08-23T06:18:54.532Z,100544.00
2018-08-23T06:21:24.454Z,100549.00
2018-08-23T06:23:55.902Z,100555.00
2018-08-23T06:26:39.255Z,100552.00
2018-08-23T06:29:10.739Z,100549.00
2018-08-23T06:31:51.259Z,100550.00
2018-08-23T06:34:21.100Z,100550.00
2018-08-23T06:36:51.082Z,100553.00
2018-08-23T06:39:20.873Z,100546.00
2018-08-23T06:42:25.181Z,100550.00
2018-08-23T06:44:56.042Z,100549.00
2018-08-23T06:47:27.128Z,100551.00
2018-08-23T06:49:56.988Z,100548.00
2018-08-23T06:52:39.313Z,100545.00
2018-08-23T06:55:14.047Z,100547.00
2018-08-23T06:57:49.848Z,100550.00
2018-08-23T07:00:25.589Z,100545.00
2018-08-23T07:02:55.687Z,100548.00
2018-08-23T07:05:25.552Z,100547.00
2018-08-23T07:07:55.572Z,100540.00
2018-08-23T07:10:25.368Z,100544.00
2018-08-23T07:12:56.760Z,100538.00
2018-08-23T07:15:26.917Z,100541.00
2018-08-23T07:17:56.880Z,100537.00
2018-08-23T07:20:26.703Z,100539.00
2018-08-23T07:22:56.333Z,100541.00
2018-08-23T07:25:26.402Z,100540.00
2018-08-23T07:27:56.483Z,100540.00
2018-08-23T07:30:26.353Z,100536.00
2018-08-23T07:32:56.601Z,100541.00
2018-08-23T07:35:26.257Z,100538.00
2018-08-23T07:37:55.953Z,100542.00
2018-08-23T07:40:25.852Z,100534.00
2018-08-23T07:42:56.151Z,100532.00
2018-08-23T07:45:25.778Z,100533.00
2018-08-23T07:47:56.681Z,100535.00
2018-08-23T07:50:27.087Z,100534.00
2018-08-23T07:52:56.987Z,100530.00
2018-08-23T07:55:26.642Z,100528.00
2018-08-23T07:57:56.504Z,100531.00
2018-08-23T08:00:30.784Z,100526.00
2018-08-23T08:03:00.808Z,100530.00
2018-08-23T08:05:32.304Z,100531.00
2018-08-23T08:08:02.142Z,100532.00
2018-08-23T08:10:38.754Z,100531.00
2018-08-23T08:13:08.493Z,100536.00
2018-08-23T08:15:38.811Z,100524.00
2018-08-23T08:18:19.983Z,100530.00
2018-08-23T08:20:56.549Z,100532.00
2018-08-23T08:23:26.427Z,100538.00
2018-08-23T08:25:56.235Z,100534.00
2018-08-23T08:28:26.218Z,100532.00
2018-08-23T08:30:59.537Z,100536.00
2018-08-23T08:33:36.162Z,100532.00
2018-08-23T08:36:06.682Z,100533.00
2018-08-23T08:38:37.029Z,100531.00
2018-08-23T08:41:07.013Z,100537.00
2018-08-23T08:43:37.084Z,100523.00
2018-08-23T08:46:07.098Z,100527.00
2018-08-23T08:48:37.019Z,100519.00
2018-08-23T08:51:16.761Z,100522.00
2018-08-23T08:53:47.072Z,100519.00
2018-08-23T08:56:22.103Z,100518.00
2018-08-23T08:58:52.910Z,100506.00
2018-08-23T09:01:22.849Z,100512.00
2018-08-23T09:03:52.877Z,100511.00
2018-08-23T09:06:24.244Z,100503.00
2018-08-23T09:08:54.108Z,100501.00
2018-08-23T09:14:01.854Z,100497.00
2018-08-23T09:16:31.957Z,100487.00
2018-08-23T09:19:04.312Z,100492.00
2018-08-23T09:21:34.679Z,100484.00
2018-08-23T09:24:28.682Z,100487.00
2018-08-23T09:26:58.625Z,100483.00
2018-08-23T09:29:38.638Z,100490.00
2018-08-23T09:32:19.104Z,100489.00
2018-08-23T09:34:49.295Z,100476.00
2018-08-23T09:37:19.825Z,100473.00
2018-08-23T09:45:25.623Z,100472.00
2018-08-23T09:47:55.399Z,100464.00
2018-08-23T09:50:25.803Z,100454.00
2018-08-23T09:52:55.894Z,100472.00
2018-08-23T09:55:34.077Z,100452.00
2018-08-23T09:58:03.853Z,100466.00
2018-08-23T10:00:38.901Z,100455.00
2018-08-23T10:03:13.899Z,100451.00
2018-08-23T10:05:48.963Z,100450.00
2018-08-23T10:08:24.091Z,100447.00
2018-08-23T10:10:59.062Z,100444.00
2018-08-23T10:13:34.124Z,100444.00
2018-08-23T10:16:09.666Z,100440.00
2018-08-23T10:18:44.998Z,100429.00
2018-08-23T10:21:17.033Z,100431.00
2018-08-23T10:23:46.883Z,100438.00
2018-08-23T10:26:30.888Z,100437.00
2018-08-23T10:29:00.850Z,100436.00
2018-08-23T10:31:30.792Z,100427.00
2018-08-23T10:34:00.811Z,100439.00
2018-08-23T10:36:30.879Z,100424.00
2018-08-23T10:39:00.855Z,100428.00
2018-08-23T10:41:30.865Z,100427.00
2018-08-23T10:44:00.599Z,100422.00
2018-08-23T10:46:34.670Z,100429.00
2018-08-23T10:49:04.736Z,100426.00
2018-08-23T10:51:34.732Z,100426.00
2018-08-23T10:54:04.698Z,100421.00
2018-08-23T10:56:34.698Z,100421.00
2018-08-23T10:59:04.863Z,100418.00
2018-08-23T11:01:34.664Z,100419.00
2018-08-23T11:04:05.792Z,100419.00
2018-08-23T11:06:37.547Z,100412.00
2018-08-23T11:09:13.942Z,100408.00
2018-08-23T11:11:43.615Z,100417.00
2018-08-23T11:14:53.822Z,100420.00
2018-08-23T11:17:29.088Z,100410.00
2018-08-23T11:21:05.304Z,100412.00
2018-08-23T11:23:35.344Z,100413.00
2018-08-23T11:26:05.457Z,100403.00
2018-08-23T11:28:35.554Z,100402.00
2018-08-23T11:31:05.479Z,100400.00
2018-08-23T11:33:35.632Z,100400.00
2018-08-23T11:36:05.619Z,100400.00
2018-08-23T11:38:35.533Z,100395.00
2018-08-23T11:41:05.646Z,100401.00
2018-08-23T11:43:35.609Z,100407.00
2018-08-23T11:46:10.837Z,100400.00
2018-08-23T11:48:41.261Z,100394.00
2018-08-23T11:51:11.544Z,100384.00
2018-08-23T11:53:41.746Z,100382.00
2018-08-23T11:56:11.678Z,100377.00
2018-08-23T11:58:42.202Z,100379.00
2018-08-23T12:01:13.290Z,100371.00
2018-08-23T12:03:43.720Z,100365.00
2018-08-23T12:06:14.660Z,100377.00
2018-08-23T12:08:44.706Z,100368.00
2018-08-23T12:11:14.614Z,100366.00
2018-08-23T12:13:49.573Z,100362.00
2018-08-23T12:16:19.734Z,100366.00
2018-08-23T12:18:50.083Z,100364.00
2018-08-23T12:21:20.054Z,100357.00
2018-08-23T12:23:50.034Z,100365.00
2018-08-23T12:26:19.792Z,100361.00
2018-08-23T12:28:54.684Z,100359.00
2018-08-23T12:31:24.698Z,100356.00
2018-08-23T12:33:54.764Z,100353.00
2018-08-23T12:36:29.645Z,100369.00
2018-08-23T12:39:04.662Z,100348.00
2018-08-23T12:41:39.603Z,100347.00
2018-08-23T12:44:09.577Z,100341.00
2018-08-23T12:46:39.496Z,100353.00
2018-08-23T12:49:09.430Z,100338.00
2018-08-23T12:51:39.323Z,100340.00
2018-08-23T12:54:09.297Z,100343.00
2018-08-23T12:56:39.179Z,100332.00
2018-08-23T12:59:09.019Z,100333.00
2018-08-23T13:01:38.887Z,100334.00
2018-08-23T13:04:08.955Z,100339.00
2018-08-23T13:06:38.920Z,100329.00
2018-08-23T13:09:08.682Z,100321.00
2018-08-23T13:11:39.047Z,100327.00
2018-08-23T13:14:09.903Z,100304.00
2018-08-23T13:16:39.774Z,100303.00
2018-08-23T13:19:09.763Z,100309.00
2018-08-23T13:21:39.844Z,100306.00
2018-08-23T13:24:09.748Z,100296.00
2018-08-23T13:26:45.438Z,100305.00
2018-08-23T13:29:15.595Z,100304.00
2018-08-23T13:31:45.683Z,100293.00
2018-08-23T13:34:15.789Z,100302.00
2018-08-23T13:36:45.827Z,100293.00
2018-08-23T13:39:15.944Z,100317.00
2018-08-23T13:41:45.654Z,100286.00
2018-08-23T13:44:15.467Z,100289.00
2018-08-23T13:46:45.438Z,100279.00
2018-08-23T13:49:15.453Z,100290.00
2018-08-23T13:51:45.412Z,100277.00
2018-08-23T13:54:15.498Z,100289.00
2018-08-23T13:56:45.489Z,100275.00
2018-08-23T13:59:15.352Z,100288.00
2018-08-23T14:01:45.050Z,100291.00
2018-08-23T14:04:14.938Z,100282.00
2018-08-23T14:06:44.829Z,100279.00
2018-08-23T14:09:14.757Z,100276.00
2018-08-23T14:11:44.625Z,100266.00
2018-08-23T14:14:14.558Z,100266.00
2018-08-23T14:16:44.858Z,100266.00
2018-08-23T14:19:14.937Z,100262.00
2018-08-23T14:21:45.025Z,100265.00
2018-08-23T14:24:14.931Z,100274.00
2018-08-23T14:26:45.056Z,100273.00
2018-08-23T14:29:16.066Z,100254.00
2018-08-23T14:36:38.794Z,100250.00
2018-08-23T14:39:11.480Z,100249.00
2018-08-23T14:41:41.628Z,100245.00
2018-08-23T14:44:12.187Z,100236.00
2018-08-23T14:46:47.412Z,100242.00
2018-08-23T14:49:35.722Z,100238.00
2018-08-23T14:52:06.807Z,100234.00
2018-08-23T14:54:43.789Z,100230.00
2018-08-23T14:57:19.090Z,100241.00
2018-08-23T14:59:48.910Z,100230.00
2018-08-23T15:02:18.882Z,100230.00
2018-08-23T15:04:49.530Z,100227.00
2018-08-23T15:07:19.564Z,100222.00
2018-08-23T15:09:49.565Z,100234.00
2018-08-23T15:12:19.466Z,100224.00
2018-08-23T15:14:49.329Z,100230.00
2018-08-23T15:17:19.233Z,100261.00
2018-08-23T15:19:49.025Z,100218.00
2018-08-23T15:22:19.246Z,100219.00
2018-08-23T15:24:49.088Z,100222.00
2018-08-23T15:27:19.123Z,100211.00
2018-08-23T15:29:49.084Z,100207.00
2018-08-23T15:32:19.519Z,100223.00
2018-08-23T15:34:49.489Z,100199.00
2018-08-23T15:37:19.484Z,100203.00
2018-08-23T15:39:49.556Z,100202.00
2018-08-23T15:42:20.592Z,100199.00
2018-08-23T15:44:50.471Z,100212.00
2018-08-23T15:47:20.264Z,100213.00
2018-08-23T15:49:50.252Z,100210.00
2018-08-23T15:52:20.210Z,100204.00
2018-08-23T15:54:50.116Z,100214.00
2018-08-23T15:57:19.982Z,100203.00
2018-08-23T15:59:50.034Z,100208.00
2018-08-23T16:02:20.151Z,100210.00
2018-08-23T16:04:50.328Z,100204.00
2018-08-23T16:07:20.416Z,100205.00
2018-08-23T16:09:50.506Z,100200.00
2018-08-23T16:12:20.421Z,100204.00
2018-08-23T16:14:50.412Z,100199.00
2018-08-23T16:17:25.573Z,100203.00
2018-08-23T16:20:01.001Z,100204.00
2018-08-23T16:22:31.149Z,100200.00
2018-08-23T16:25:01.291Z,100197.00
2018-08-23T16:27:31.353Z,100198.00
2018-08-23T16:30:01.490Z,100200.00
2018-08-23T16:32:35.422Z,100209.00
2018-08-23T16:35:05.357Z,100208.00
2018-08-23T16:37:35.963Z,100203.00
2018-08-23T16:40:06.364Z,100206.00
2018-08-23T16:42:36.458Z,100203.00
2018-08-23T16:45:06.415Z,100210.00
2018-08-23T16:47:36.372Z,100205.00
2018-08-23T16:50:06.313Z,100196.00
2018-08-23T16:52:36.650Z,100195.00
2018-08-23T16:55:06.957Z,100195.00
2018-08-23T16:57:37.005Z,100188.00
2018-08-23T17:00:06.960Z,100198.00
2018-08-23T17:02:37.059Z,100193.00
2018-08-23T17:05:07.360Z,100190.00
2018-08-23T17:07:37.294Z,100189.00
2018-08-23T17:10:07.272Z,100189.00
2018-08-23T17:12:37.353Z,100190.00
2018-08-23T17:15:11.850Z,100193.00
2018-08-23T17:17:45.244Z,100192.00
2018-08-23T17:20:16.374Z,100189.00
2018-08-23T17:22:46.349Z,100190.00
2018-08-23T17:25:16.262Z,100194.00
2018-08-23T17:27:46.323Z,100191.00
2018-08-23T17:30:16.455Z,100187.00
2018-08-23T17:32:46.633Z,100181.00
2018-08-23T17:35:16.727Z,100178.00
2018-08-23T17:37:46.558Z,100180.00
2018-08-23T17:40:16.506Z,100188.00
2018-08-23T17:42:46.417Z,100189.00
2018-08-23T17:45:16.873Z,100189.00
2018-08-23T17:47:48.077Z,100193.00
2018-08-23T17:50:18.944Z,100194.00
2018-08-23T17:52:49.345Z,100189.00
2018-08-23T17:55:19.640Z,100192.00
2018-08-23T17:57:49.660Z,100196.00
2018-08-23T18:00:19.590Z,100201.00
2018-08-23T18:02:49.615Z,100200.00
2018-08-23T18:05:19.571Z,100205.00
2018-08-23T18:07:49.431Z,100213.00
2018-08-23T18:10:19.531Z,100214.00
2018-08-23T18:12:49.290Z,100212.00
2018-08-23T18:15:19.011Z,100213.00
2018-08-23T18:17:48.989Z,100216.00
2018-08-23T18:20:19.067Z,100215.00
2018-08-23T18:22:49.171Z,100228.00
2018-08-23T18:25:19.276Z,100231.00
2018-08-23T18:27:49.414Z,100225.00
2018-08-23T18:30:19.578Z,100223.00
2018-08-23T18:32:49.578Z,100233.00
2018-08-23T18:35:19.706Z,100238.00
2018-08-23T18:37:49.928Z,100239.00
2018-08-23T18:40:20.008Z,100242.00
2018-08-23T18:42:50.095Z,100246.00
2018-08-23T18:45:20.175Z,100254.00
2018-08-23T18:47:50.043Z,100251.00
2018-08-23T18:50:19.894Z,100255.00
2018-08-23T18:52:50.024Z,100260.00
2018-08-23T18:55:19.924Z,100259.00
2018-08-23T18:57:51.183Z,100245.00
2018-08-23T19:00:21.526Z,100268.00
2018-08-23T19:02:51.466Z,100266.00
2018-08-23T19:05:21.508Z,100267.00
2018-08-23T19:07:51.728Z,100266.00
2018-08-23T19:10:21.907Z,100262.00
2018-08-23T19:12:52.243Z,100262.00
2018-08-23T19:16:31.848Z,100265.00
2018-08-23T19:19:02.028Z,100266.00
2018-08-23T19:21:32.642Z,100267.00
2018-08-23T19:24:03.412Z,100261.00
2018-08-23T19:26:33.697Z,100268.00
2018-08-23T19:29:03.919Z,100267.00
2018-08-23T19:31:34.018Z,100269.00
2018-08-23T19:34:04.368Z,100265.00
2018-08-23T19:36:34.279Z,100260.00
2018-08-23T19:39:05.797Z,100261.00
2018-08-23T19:41:35.737Z,100251.00
2018-08-23T19:44:05.998Z,100247.00
2018-08-23T19:46:41.028Z,100236.00
2018-08-23T19:49:16.133Z,100237.00
2018-08-23T19:51:46.312Z,100237.00
2018-08-23T19:54:17.506Z,100237.00
2018-08-23T19:56:48.775Z,100235.00
2018-08-23T19:59:20.145Z,100238.00
2018-08-23T20:01:51.437Z,100243.00
2018-08-23T20:04:22.138Z,100237.00
2018-08-23T20:06:52.411Z,100237.00
2018-08-23T20:09:22.315Z,100232.00
2018-08-23T20:11:52.351Z,100232.00
2018-08-23T20:14:22.340Z,100236.00
2018-08-23T20:16:52.889Z,100230.00
2018-08-23T20:19:23.098Z,100226.00
2018-08-23T20:21:53.352Z,100228.00
2018-08-23T20:24:23.520Z,100220.00
2018-08-23T20:26:53.589Z,100227.00
2018-08-23T20:29:24.124Z,100228.00
2018-08-23T20:31:54.573Z,100229.00
2018-08-23T20:34:25.339Z,100223.00
2018-08-23T20:36:55.726Z,100229.00
2018-08-23T20:39:26.502Z,100229.00
2018-08-23T20:41:56.677Z,100232.00
2018-08-23T20:44:27.167Z,100237.00
2018-08-23T20:46:57.922Z,100235.00
2018-08-23T20:49:28.007Z,100239.00
2018-08-23T20:51:58.173Z,100231.00
2018-08-23T20:54:28.310Z,100231.00
2018-08-23T20:56:58.425Z,100233.00
2018-08-23T20:59:28.417Z,100232.00
2018-08-23T21:01:58.285Z,100231.00
2018-08-23T21:04:28.405Z,100224.00
2018-08-23T21:06:58.503Z,100224.00
2018-08-23T21:09:28.574Z,100225.00
2018-08-23T21:11:58.914Z,100226.00
2018-08-23T21:14:28.872Z,100230.00
2018-08-23T21:16:58.719Z,100224.00
2018-08-23T21:19:28.746Z,100226.00
2018-08-23T21:21:58.592Z,100235.00
2018-08-23T21:24:28.698Z,100238.00
2018-08-23T21:26:58.895Z,100237.00
2018-08-23T21:29:28.994Z,100235.00
2018-08-23T21:31:59.144Z,100233.00
2018-08-23T21:34:29.217Z,100235.00
2018-08-23T21:36:59.014Z,100234.00
2018-08-23T21:39:29.009Z,100233.00
2018-08-23T21:41:58.734Z,100236.00
2018-08-23T21:44:28.683Z,100233.00
2018-08-23T21:46:58.657Z,100237.00
2018-08-23T21:49:28.940Z,100237.00
2018-08-23T21:51:58.894Z,100239.00
2018-08-23T21:54:28.915Z,100241.00
2018-08-23T21:56:58.874Z,100239.00
2018-08-23T21:59:28.697Z,100242.00
2018-08-23T22:02:30.989Z,100238.00
2018-08-23T22:05:00.998Z,100240.00
2018-08-23T22:07:30.860Z,100237.00
2018-08-23T22:10:00.769Z,100233.00
2018-08-23T22:12:30.727Z,100231.00
2018-08-23T22:15:00.543Z,100225.00
2018-08-23T22:17:30.477Z,100226.00
2018-08-23T22:20:01.381Z,100227.00
2018-08-23T22:22:31.582Z,100228.00
2018-08-23T22:25:01.703Z,100228.00
2018-08-23T22:27:31.802Z,100228.00
2018-08-23T22:30:01.774Z,100229.00
2018-08-23T22:32:31.943Z,100225.00
2018-08-23T22:35:01.814Z,100221.00
2018-08-23T22:37:31.995Z,100221.00
2018-08-23T22:40:01.894Z,100222.00
2018-08-23T22:42:32.779Z,100212.00
2018-08-23T22:45:02.937Z,100207.00
2018-08-23T22:47:33.354Z,100205.00
2018-08-23T22:50:03.444Z,100205.00
2018-08-23T22:52:33.223Z,100208.00
2018-08-23T22:55:03.303Z,100206.00
2018-08-23T22:57:33.212Z,100207.00
2018-08-23T23:00:03.903Z,100196.00
2018-08-23T23:02:39.739Z,100191.00
2018-08-23T23:05:10.728Z,100186.00
2018-08-23T23:07:40.369Z,100189.00
2018-08-23T23:10:10.375Z,100182.00
2018-08-23T23:12:40.168Z,100180.00
2018-08-23T23:15:15.634Z,100182.00
2018-08-23T23:17:45.577Z,100181.00
2018-08-23T23:20:15.706Z,100181.00
2018-08-23T23:22:45.518Z,100177.00
2018-08-23T23:25:15.343Z,100176.00
2018-08-23T23:27:45.448Z,100183.00
2018-08-23T23:30:15.372Z,100186.00
2018-08-23T23:32:45.248Z,100184.00
2018-08-23T23:35:15.157Z,100189.00
2018-08-23T23:37:45.329Z,100189.00
2018-08-23T23:40:15.183Z,100186.00
2018-08-23T23:42:45.085Z,100182.00
2018-08-23T23:45:15.071Z,100178.00
2018-08-23T23:47:45.121Z,100175.00
2018-08-23T23:50:15.089Z,100170.00
2018-08-23T23:52:44.977Z,100171.00
2018-08-23T23:55:14.878Z,100173.00
2018-08-23T23:57:44.621Z,100179.00
